Time;durP1;ratioP1;P1;durP2;ratioP2;P2;SDS_P1;SDS_P2;PMS_P1;PMS_P2;Temp;Humidity;BMP_temperature;BMP_pressure;BME280_temperature;BME280_humidity;BME280_pressure;Samples;Min_cycle;Max_cycle;Signal;HPM_P1;HPM_P2
2024/01/19 00:01:58;;;;;;;1.05;1.00;;;18.40;56.90;;;;;;5044471;28;20194;-72
2024/01/19 00:04:23;;;;;;;1.60;1.30;;;18.50;56.90;;;;;;5049499;28;20184;-72
2024/01/19 00:06:49;;;;;;;1.15;0.95;;;18.50;56.90;;;;;;5076644;28;20230;-72
2024/01/19 00:09:15;;;;;;;1.40;1.30;;;18.50;56.90;;;;;;5063324;28;20227;-71
2024/01/19 00:11:41;;;;;;;1.38;1.27;;;18.40;56.90;;;;;;5048726;28;20187;-71
2024/01/19 00:14:06;;;;;;;1.42;1.15;;;18.50;56.90;;;;;;5052158;28;20218;-72
2024/01/19 00:16:32;;;;;;;1.20;1.10;;;18.50;56.90;;;;;;5059932;28;20272;-72
2024/01/19 00:18:58;;;;;;;1.48;1.38;;;18.40;56.80;;;;;;5063296;28;20178;-72
2024/01/19 00:21:24;;;;;;;1.42;1.33;;;18.40;56.80;;;;;;5038094;28;20280;-72
2024/01/19 00:23:50;;;;;;;1.38;1.27;;;18.50;56.90;;;;;;5058975;28;20219;-72
2024/01/19 00:26:16;;;;;;;1.50;1.10;;;18.50;56.90;;;;;;5063313;28;20213;-72
2024/01/19 00:28:42;;;;;;;1.20;1.10;;;18.50;56.80;;;;;;5057312;28;20194;-72
2024/01/19 00:31:08;;;;;;;1.58;1.30;;;18.40;56.70;;;;;;5073737;28;20194;-72
2024/01/19 00:33:33;;;;;;;1.40;1.30;;;18.50;56.80;;;;;;5056427;28;20186;-72
2024/01/19 00:35:59;;;;;;;1.70;1.20;;;18.40;56.70;;;;;;5056106;28;20213;-71
2024/01/19 00:38:25;;;;;;;1.02;0.93;;;18.40;56.80;;;;;;5036666;28;20202;-71
2024/01/19 00:40:51;;;;;;;1.15;1.08;;;18.40;56.70;;;;;;5055272;28;20250;-72
2024/01/19 00:43:16;;;;;;;1.40;1.30;;;18.40;56.80;;;;;;5044383;28;20189;-71
2024/01/19 00:45:42;;;;;;;1.40;1.30;;;18.40;56.80;;;;;;5044199;28;20191;-72
2024/01/19 00:48:08;;;;;;;1.75;1.30;;;18.40;56.70;;;;;;5047548;28;20247;-72
2024/01/19 00:50:33;;;;;;;1.20;1.10;;;18.40;56.80;;;;;;5050753;28;20191;-71
2024/01/19 00:52:59;;;;;;;1.00;1.00;;;18.40;56.70;;;;;;5055312;28;20212;-71
2024/01/19 00:55:25;;;;;;;1.55;1.00;;;18.40;56.70;;;;;;5055010;28;20195;-71
2024/01/19 00:57:51;;;;;;;1.30;1.15;;;18.40;56.70;;;;;;5039089;28;20214;-72
2024/01/19 01:00:16;;;;;;;1.40;1.30;;;18.40;56.60;;;;;;5043824;28;20210;-72
2024/01/19 01:02:42;;;;;;;2.05;1.50;;;18.40;56.60;;;;;;5075583;28;20202;-71
2024/01/19 01:05:08;;;;;;;1.33;1.23;;;18.40;56.60;;;;;;5059958;28;20182;-71
2024/01/19 01:07:35;;;;;;;1.30;1.20;;;18.40;56.60;;;;;;5069141;28;20206;-71
2024/01/19 01:10:01;;;;;;;0.95;0.95;;;18.40;56.60;;;;;;5043762;28;20190;-71
2024/01/19 01:12:26;;;;;;;1.80;1.10;;;18.40;56.60;;;;;;5044085;28;20277;-71
2024/01/19 01:14:53;;;;;;;1.20;1.10;;;18.40;56.50;;;;;;5045813;28;20194;-71
2024/01/19 01:17:19;;;;;;;1.65;1.42;;;18.40;56.50;;;;;;5044024;28;20225;-70
2024/01/19 01:19:46;;;;;;;1.67;1.25;;;18.40;56.60;;;;;;5043907;28;20218;-71
2024/01/19 01:22:13;;;;;;;1.30;1.20;;;18.40;56.50;;;;;;5055075;28;20190;-71
2024/01/19 01:24:38;;;;;;;1.45;1.20;;;18.40;56.50;;;;;;5036839;28;20213;-71
2024/01/19 01:27:04;;;;;;;1.25;1.15;;;18.40;56.50;;;;;;5063364;28;20218;-71
2024/01/19 01:29:30;;;;;;;1.05;1.05;;;18.40;56.50;;;;;;5057351;28;20212;-71
2024/01/19 01:31:56;;;;;;;1.50;1.40;;;18.40;56.50;;;;;;5055314;28;20562;-72
2024/01/19 01:34:21;;;;;;;1.20;1.10;;;18.40;56.50;;;;;;5043272;28;20177;-72
2024/01/19 01:36:47;;;;;;;1.30;1.20;;;18.40;56.50;;;;;;5059032;28;20203;-72
2024/01/19 01:39:13;;;;;;;1.30;1.20;;;18.40;56.50;;;;;;5053280;28;20190;-72
2024/01/19 01:41:41;;;;;;;1.40;1.30;;;18.40;57.10;;;;;;5044073;28;20228;-71
2024/01/19 01:44:07;;;;;;;1.52;1.30;;;18.40;56.50;;;;;;5057173;28;20224;-72
2024/01/19 01:46:33;;;;;;;1.42;1.33;;;18.30;56.40;;;;;;5041923;28;20226;-72
2024/01/19 01:48:59;;;;;;;1.35;1.20;;;18.40;56.50;;;;;;5050649;28;20218;-72
2024/01/19 01:51:25;;;;;;;1.27;1.25;;;18.40;56.50;;;;;;5035563;28;20195;-72
2024/01/19 01:53:51;;;;;;;1.20;1.10;;;18.40;56.40;;;;;;5047860;28;20199;-72
2024/01/19 01:56:17;;;;;;;1.60;1.50;;;18.40;56.40;;;;;;5055335;28;20264;-72
2024/01/19 01:58:44;;;;;;;1.60;1.50;;;18.40;56.40;;;;;;5038592;28;20290;-72
2024/01/19 02:01:10;;;;;;;1.65;1.45;;;18.40;56.40;;;;;;5050645;28;20223;-72
2024/01/19 02:03:39;;;;;;;1.75;1.45;;;18.40;56.20;;;;;;5058176;28;20636;-72
2024/01/19 02:06:04;;;;;;;1.50;1.40;;;18.40;56.40;;;;;;5033055;28;20198;-72
2024/01/19 02:08:30;;;;;;;1.48;1.20;;;18.40;56.30;;;;;;5041401;28;20191;-72
2024/01/19 02:10:56;;;;;;;1.80;1.50;;;18.40;56.20;;;;;;5061585;28;20186;-72
2024/01/19 02:13:22;;;;;;;1.58;1.48;;;18.40;56.30;;;;;;5055198;28;20268;-72
2024/01/19 02:15:48;;;;;;;1.45;1.35;;;18.40;56.30;;;;;;5055599;28;20325;-72
2024/01/19 02:18:14;;;;;;;2.35;1.50;;;18.40;56.20;;;;;;5065603;28;20187;-72
2024/01/19 02:20:39;;;;;;;1.58;1.30;;;18.40;56.20;;;;;;5054664;28;20207;-72
2024/01/19 02:23:12;;;;;;;1.83;1.45;;;18.40;56.20;;;;;;5037056;28;20305;-72
2024/01/19 02:25:38;;;;;;;1.83;1.40;;;18.40;56.20;;;;;;5058252;28;20183;-72
2024/01/19 02:28:05;;;;;;;1.52;1.42;;;18.30;56.20;;;;;;5056405;28;20188;-72
2024/01/19 02:30:32;;;;;;;1.60;1.50;;;18.40;56.30;;;;;;5052896;28;20205;-72
2024/01/19 02:32:57;;;;;;;1.50;1.40;;;18.40;56.30;;;;;;5059370;28;20186;-72
2024/01/19 02:35:23;;;;;;;1.88;1.52;;;18.40;56.20;;;;;;5057491;28;20231;-72
2024/01/19 02:37:49;;;;;;;1.70;1.60;;;18.40;56.30;;;;;;5034248;28;20199;-72
2024/01/19 02:40:15;;;;;;;1.55;1.45;;;18.30;56.20;;;;;;5052790;28;20209;-72
2024/01/19 02:42:40;;;;;;;1.73;1.58;;;18.30;56.20;;;;;;5048853;28;20190;-72
2024/01/19 02:45:07;;;;;;;1.80;1.70;;;18.30;56.20;;;;;;5057685;28;20186;-72
2024/01/19 02:47:33;;;;;;;1.80;1.55;;;18.40;56.20;;;;;;5037893;28;20202;-72
2024/01/19 02:49:59;;;;;;;1.98;1.70;;;18.30;56.20;;;;;;5057592;28;20187;-72
2024/01/19 02:52:24;;;;;;;1.50;1.40;;;18.30;56.20;;;;;;5052908;28;20190;-72
2024/01/19 02:54:50;;;;;;;1.65;1.45;;;18.40;56.20;;;;;;5064240;28;20196;-72
2024/01/19 02:57:16;;;;;;;1.67;1.58;;;18.40;56.20;;;;;;5061878;28;20205;-72
2024/01/19 02:59:42;;;;;;;1.92;1.70;;;18.40;56.20;;;;;;5056235;28;20214;-72
2024/01/19 03:02:07;;;;;;;1.55;1.45;;;18.30;56.20;;;;;;5055426;28;20180;-72
2024/01/19 03:04:33;;;;;;;2.05;1.85;;;18.30;56.20;;;;;;5048406;28;20241;-72
2024/01/19 03:06:59;;;;;;;2.88;1.55;;;18.40;56.30;;;;;;5059594;28;20214;-72
2024/01/19 03:09:25;;;;;;;1.60;1.50;;;18.30;56.20;;;;;;5040374;28;20201;-72
2024/01/19 03:11:50;;;;;;;1.52;1.42;;;18.30;56.20;;;;;;5048768;28;20199;-72
2024/01/19 03:14:16;;;;;;;1.65;1.55;;;18.30;56.20;;;;;;5044436;28;20186;-72
2024/01/19 03:16:44;;;;;;;1.58;1.40;;;18.30;56.20;;;;;;5050787;28;20215;-72
2024/01/19 03:19:10;;;;;;;1.60;1.50;;;18.40;56.30;;;;;;5034368;28;20182;-72
2024/01/19 03:21:35;;;;;;;1.60;1.50;;;18.30;56.20;;;;;;5044313;28;20301;-72
2024/01/19 03:24:02;;;;;;;1.90;1.67;;;18.30;56.20;;;;;;5050891;28;20279;-72
2024/01/19 03:26:28;;;;;;;1.70;1.60;;;18.30;56.20;;;;;;5041855;28;20272;-72
2024/01/19 03:28:54;;;;;;;2.20;1.70;;;18.40;56.20;;;;;;5056707;28;20186;-72
2024/01/19 03:31:19;;;;;;;1.50;1.40;;;18.30;56.20;;;;;;5048442;28;20201;-71
2024/01/19 03:33:45;;;;;;;1.70;1.60;;;18.30;56.20;;;;;;5071693;28;20197;-71
2024/01/19 03:36:11;;;;;;;2.10;1.85;;;18.40;56.20;;;;;;5055554;28;20210;-72
2024/01/19 03:38:37;;;;;;;1.73;1.63;;;18.30;56.20;;;;;;5054904;28;20187;-72
2024/01/19 03:41:03;;;;;;;1.67;1.58;;;18.30;56.20;;;;;;5049091;28;20572;-72
2024/01/19 03:43:29;;;;;;;2.15;1.95;;;18.30;56.10;;;;;;5057897;28;20241;-72
2024/01/19 03:45:55;;;;;;;1.70;1.60;;;18.30;56.00;;;;;;5041240;28;20210;-71
2024/01/19 03:48:20;;;;;;;1.73;1.63;;;18.30;56.00;;;;;;5042205;28;20243;-72
2024/01/19 03:50:46;;;;;;;1.55;1.45;;;18.30;56.00;;;;;;5046665;28;20171;-71
2024/01/19 03:53:12;;;;;;;1.70;1.60;;;18.30;56.00;;;;;;5073552;28;20181;-71
2024/01/19 03:55:38;;;;;;;2.53;2.00;;;18.30;56.00;;;;;;5030870;28;20191;-71
2024/01/19 03:58:03;;;;;;;1.67;1.58;;;18.30;56.00;;;;;;5029755;28;20191;-71
2024/01/19 04:00:29;;;;;;;1.73;1.63;;;18.30;56.00;;;;;;5037029;28;20214;-71
2024/01/19 04:02:55;;;;;;;1.92;1.80;;;18.30;55.90;;;;;;5058807;28;20183;-71
2024/01/19 04:05:21;;;;;;;1.80;1.70;;;18.30;55.90;;;;;;5038147;28;20260;-72
2024/01/19 04:07:47;;;;;;;2.03;1.83;;;18.30;55.90;;;;;;5045826;28;20194;-71
2024/01/19 04:10:12;;;;;;;2.20;1.90;;;18.30;55.90;;;;;;5042141;28;20214;-71
2024/01/19 04:12:38;;;;;;;2.13;1.90;;;18.30;55.90;;;;;;5040753;28;20194;-71
2024/01/19 04:15:05;;;;;;;1.80;1.60;;;18.30;55.90;;;;;;5031199;28;20193;-71
2024/01/19 04:17:31;;;;;;;2.10;2.00;;;18.30;55.90;;;;;;5048668;28;20648;-71
2024/01/19 04:19:57;;;;;;;1.88;1.52;;;18.30;55.90;;;;;;5032455;28;20360;-71
2024/01/19 04:22:22;;;;;;;2.10;1.90;;;18.30;55.90;;;;;;5051133;28;20178;-72
2024/01/19 04:24:48;;;;;;;1.83;1.73;;;18.30;55.80;;;;;;5034429;28;20193;-72
2024/01/19 04:27:14;;;;;;;2.50;2.05;;;18.20;55.80;;;;;;5051437;28;20260;-72
2024/01/19 04:29:40;;;;;;;1.85;1.75;;;18.30;55.80;;;;;;5050526;28;20548;-72
2024/01/19 04:32:06;;;;;;;2.00;1.90;;;18.30;55.90;;;;;;5031281;28;20216;-72
2024/01/19 04:34:31;;;;;;;2.83;2.05;;;18.30;55.80;;;;;;5050820;28;20209;-72
2024/01/19 04:36:57;;;;;;;2.30;2.10;;;18.30;55.80;;;;;;5035348;28;20204;-72
2024/01/19 04:39:24;;;;;;;2.10;1.90;;;18.30;55.80;;;;;;5038853;28;20217;-72
2024/01/19 04:41:49;;;;;;;1.95;1.70;;;18.30;55.80;;;;;;5057396;28;20191;-72
2024/01/19 04:44:15;;;;;;;1.90;1.80;;;18.20;55.80;;;;;;5034278;28;20179;-72
2024/01/19 04:46:41;;;;;;;2.15;2.00;;;18.30;55.80;;;;;;5051495;28;20210;-72
2024/01/19 04:49:07;;;;;;;2.20;1.80;;;18.20;55.70;;;;;;5045508;28;20282;-72
2024/01/19 04:51:33;;;;;;;2.25;2.05;;;18.30;55.80;;;;;;5036163;28;20202;-72
2024/01/19 04:53:59;;;;;;;2.78;2.25;;;18.20;55.50;;;;;;5035165;28;20191;-72
2024/01/19 04:56:25;;;;;;;2.22;2.03;;;18.30;55.70;;;;;;5048727;28;20270;-71
2024/01/19 04:58:51;;;;;;;2.30;2.10;;;18.30;55.60;;;;;;5054276;28;20194;-72
2024/01/19 05:01:17;;;;;;;2.33;2.13;;;18.30;55.50;;;;;;5044576;28;20694;-72
2024/01/19 05:03:44;;;;;;;1.90;1.80;;;18.30;55.50;;;;;;5061858;28;20210;-72
2024/01/19 05:06:13;;;;;;;2.20;2.10;;;18.30;55.60;;;;;;5033338;28;20215;-72
2024/01/19 05:08:39;;;;;;;2.50;2.00;;;18.30;55.60;;;;;;5068589;28;20246;-72
2024/01/19 05:11:05;;;;;;;1.95;1.85;;;18.30;55.60;;;;;;5063046;28;20281;-72
2024/01/19 05:13:31;;;;;;;2.22;2.05;;;18.20;55.50;;;;;;5051770;28;20228;-72
2024/01/19 05:15:56;;;;;;;2.20;2.00;;;18.30;55.50;;;;;;5043935;28;20202;-73
2024/01/19 05:18:22;;;;;;;2.50;2.30;;;18.20;55.50;;;;;;5057383;28;20190;-73
2024/01/19 05:20:48;;;;;;;2.15;1.88;;;18.20;55.50;;;;;;5033940;28;20222;-73
2024/01/19 05:23:14;;;;;;;1.90;1.80;;;18.20;55.50;;;;;;5047888;28;20253;-72
2024/01/19 05:25:40;;;;;;;2.05;1.95;;;18.20;55.50;;;;;;5049946;28;20222;-72
2024/01/19 05:28:06;;;;;;;2.15;1.95;;;18.30;55.50;;;;;;5060182;28;20187;-72
2024/01/19 05:30:31;;;;;;;1.88;1.77;;;18.30;55.60;;;;;;5032994;28;20190;-72
2024/01/19 05:32:57;;;;;;;2.30;2.00;;;18.20;55.50;;;;;;5048561;28;20193;-72
2024/01/19 05:35:23;;;;;;;2.15;1.95;;;18.20;55.50;;;;;;5036294;28;20186;-72
2024/01/19 05:37:49;;;;;;;3.15;1.98;;;18.20;55.50;;;;;;5065122;28;20210;-71
2024/01/19 05:40:14;;;;;;;1.90;1.70;;;18.30;55.50;;;;;;5045700;28;20260;-72
2024/01/19 05:42:40;;;;;;;2.00;1.83;;;18.30;55.50;;;;;;5049779;28;20187;-72
2024/01/19 05:45:07;;;;;;;2.47;2.17;;;18.30;55.50;;;;;;5068209;28;20268;-72
2024/01/19 05:47:33;;;;;;;2.10;1.90;;;18.30;55.50;;;;;;5050941;28;20204;-71
2024/01/19 05:50:00;;;;;;;2.28;2.08;;;18.20;55.50;;;;;;5041007;28;20206;-72
2024/01/19 05:52:26;;;;;;;2.30;2.10;;;18.20;55.40;;;;;;5035656;28;20280;-71
2024/01/19 05:54:52;;;;;;;2.20;2.00;;;18.20;55.50;;;;;;5040194;28;20218;-71
2024/01/19 05:57:17;;;;;;;2.30;2.10;;;18.20;55.50;;;;;;5042471;28;20210;-71
2024/01/19 05:59:43;;;;;;;2.40;2.17;;;18.20;55.50;;;;;;5046423;28;20267;-73
2024/01/19 06:02:09;;;;;;;2.45;2.25;;;18.20;55.50;;;;;;5033238;28;20199;-74
2024/01/19 06:04:38;;;;;;;2.42;2.22;;;18.20;55.50;;;;;;5046803;28;20184;-71
2024/01/19 06:07:04;;;;;;;2.13;1.83;;;18.20;55.50;;;;;;5048833;28;20206;-71
2024/01/19 06:09:30;;;;;;;2.95;2.00;;;18.20;55.50;;;;;;5067004;28;20192;-71
2024/01/19 06:11:56;;;;;;;2.28;2.08;;;18.10;55.40;;;;;;5047176;28;20190;-71
2024/01/19 06:14:23;;;;;;;2.50;2.10;;;18.10;55.40;;;;;;5033570;28;20176;-71
2024/01/19 06:16:50;;;;;;;2.38;2.17;;;18.10;55.40;;;;;;5050081;28;20210;-71
2024/01/19 06:19:15;;;;;;;2.35;2.15;;;18.10;55.30;;;;;;5040163;28;20180;-72
2024/01/19 06:21:46;;;;;;;2.25;2.08;;;18.10;55.30;;;;;;5044880;28;20221;-71
2024/01/19 06:24:16;;;;;;;2.28;2.08;;;18.10;55.20;;;;;;5054583;28;20277;-71
2024/01/19 06:26:48;;;;;;;2.30;2.10;;;18.10;55.20;;;;;;5037465;28;20217;-71
2024/01/19 06:29:15;;;;;;;2.13;1.92;;;18.10;55.20;;;;;;5037054;28;20183;-71
2024/01/19 06:31:48;;;;;;;2.58;2.38;;;18.20;55.20;;;;;;5035695;28;20182;-71
2024/01/19 06:34:14;;;;;;;2.55;2.35;;;18.20;55.20;;;;;;5037744;28;20213;-71
2024/01/19 06:36:47;;;;;;;2.50;2.30;;;18.20;55.10;;;;;;5041310;28;20206;-71
2024/01/19 06:39:13;;;;;;;2.53;2.33;;;18.20;55.10;;;;;;5046228;28;20606;-71
2024/01/19 06:41:44;;;;;;;2.15;1.95;;;18.20;55.10;;;;;;5049240;28;20211;-71
2024/01/19 06:44:13;;;;;;;2.55;2.35;;;18.20;55.10;;;;;;5050294;28;20193;-71
2024/01/19 06:46:45;;;;;;;2.28;2.13;;;18.20;55.10;;;;;;5044515;28;20283;-71
2024/01/19 06:49:11;;;;;;;2.58;2.38;;;18.20;55.10;;;;;;5063229;28;20189;-71
2024/01/19 06:51:37;;;;;;;2.53;2.33;;;18.20;55.10;;;;;;5033619;28;20183;-71
2024/01/19 06:54:03;;;;;;;2.40;2.20;;;18.20;55.10;;;;;;5032737;28;20202;-71
2024/01/19 06:56:28;;;;;;;2.55;2.35;;;18.20;55.10;;;;;;5052844;28;20210;-71
2024/01/19 06:58:54;;;;;;;2.17;2.03;;;18.20;55.10;;;;;;5033040;28;20187;-71
2024/01/19 07:01:21;;;;;;;2.45;2.25;;;18.20;55.10;;;;;;5034922;28;20214;-71
2024/01/19 07:03:47;;;;;;;2.88;2.50;;;18.20;55.10;;;;;;5059503;28;20202;-71
2024/01/19 07:06:14;;;;;;;2.40;2.20;;;18.20;55.20;;;;;;5058649;28;20206;-71
2024/01/19 07:08:40;;;;;;;2.63;2.42;;;18.20;55.10;;;;;;5062047;28;20183;-72
2024/01/19 07:11:06;;;;;;;2.50;2.30;;;18.20;55.10;;;;;;5056145;28;20201;-71
2024/01/19 07:13:31;;;;;;;2.58;2.38;;;18.20;55.10;;;;;;5040987;28;20203;-72
2024/01/19 07:15:57;;;;;;;2.72;2.53;;;18.20;55.10;;;;;;5031154;28;20210;-72
2024/01/19 07:18:23;;;;;;;3.35;2.40;;;18.20;55.10;;;;;;5067884;28;20666;-73
2024/01/19 07:20:49;;;;;;;3.35;2.42;;;18.20;55.10;;;;;;5056519;28;20309;-72
2024/01/19 07:23:15;;;;;;;2.83;2.35;;;18.20;55.00;;;;;;5041428;28;20193;-72
2024/01/19 07:25:40;;;;;;;2.58;2.38;;;18.20;55.10;;;;;;5052002;28;20261;-72
2024/01/19 07:28:06;;;;;;;3.47;2.42;;;18.20;55.10;;;;;;5047200;28;20182;-72
2024/01/19 07:30:32;;;;;;;2.97;2.70;;;18.20;55.00;;;;;;5028034;28;20218;-72
2024/01/19 07:32:58;;;;;;;3.20;2.90;;;18.20;55.00;;;;;;5041549;28;20190;-72
2024/01/19 07:35:24;;;;;;;2.97;2.70;;;18.20;55.00;;;;;;5062262;28;20189;-72
2024/01/19 07:37:50;;;;;;;3.00;2.72;;;18.20;55.00;;;;;;5071823;28;20251;-72
2024/01/19 07:40:16;;;;;;;3.80;2.75;;;18.20;55.00;;;;;;5044247;28;20238;-72
2024/01/19 07:42:42;;;;;;;2.60;2.40;;;18.20;55.00;;;;;;5055397;28;20262;-73
2024/01/19 07:45:08;;;;;;;2.70;2.50;;;18.20;55.00;;;;;;5038754;28;20223;-72
2024/01/19 07:47:34;;;;;;;3.35;2.60;;;18.20;55.00;;;;;;5045668;28;20235;-72
2024/01/19 07:49:59;;;;;;;3.17;2.92;;;18.20;55.00;;;;;;5037973;28;20213;-72
2024/01/19 07:52:25;;;;;;;2.50;2.30;;;18.20;55.00;;;;;;5037142;28;20191;-72
2024/01/19 07:54:51;;;;;;;2.80;2.60;;;18.20;55.00;;;;;;5061498;28;20194;-72
2024/01/19 07:57:17;;;;;;;3.50;2.60;;;18.20;55.00;;;;;;5064948;28;20216;-72
2024/01/19 07:59:43;;;;;;;2.92;2.45;;;18.20;55.00;;;;;;5070432;28;20217;-72
2024/01/19 08:02:10;;;;;;;2.33;2.10;;;18.20;55.10;;;;;;5042686;28;20716;-72
2024/01/19 08:04:35;;;;;;;2.92;2.30;;;18.20;55.00;;;;;;5042921;28;20232;-72
2024/01/19 08:07:02;;;;;;;2.90;2.65;;;18.20;55.00;;;;;;5055713;28;20198;-72
2024/01/19 08:09:28;;;;;;;3.60;2.50;;;18.20;55.10;;;;;;5034048;28;20187;-73
2024/01/19 08:11:54;;;;;;;2.45;2.25;;;18.20;55.10;;;;;;5047346;28;20233;-72
2024/01/19 08:14:20;;;;;;;3.10;2.80;;;18.20;55.10;;;;;;5053912;28;20194;-73
2024/01/19 08:16:46;;;;;;;2.75;2.55;;;18.20;55.10;;;;;;5056542;28;20205;-72
2024/01/19 08:19:13;;;;;;;2.60;2.40;;;18.20;55.00;;;;;;5069458;28;20189;-72
2024/01/19 08:21:43;;;;;;;2.67;2.47;;;18.20;55.00;;;;;;5062128;28;20206;-72
2024/01/19 08:24:09;;;;;;;3.00;2.78;;;18.20;55.10;;;;;;5051749;28;20192;-72
2024/01/19 08:26:35;;;;;;;2.50;2.30;;;18.20;55.00;;;;;;5053089;28;20194;-72
2024/01/19 08:29:02;;;;;;;2.42;2.22;;;18.20;55.10;;;;;;5046048;28;20182;-72
2024/01/19 08:31:30;;;;;;;2.80;2.60;;;18.20;55.00;;;;;;5066645;28;20206;-72
2024/01/19 08:33:57;;;;;;;2.47;2.28;;;18.20;55.00;;;;;;5064011;28;20665;-73
2024/01/19 08:36:24;;;;;;;3.05;2.10;;;18.20;55.00;;;;;;5067727;28;20217;-72
2024/01/19 08:38:54;;;;;;;2.33;2.13;;;18.20;55.00;;;;;;5060534;28;20308;-72
2024/01/19 08:41:23;;;;;;;3.30;2.38;;;18.20;55.00;;;;;;5055847;28;20708;-72
2024/01/19 08:43:49;;;;;;;2.67;2.40;;;18.20;55.00;;;;;;5064671;28;20182;-72
2024/01/19 08:46:15;;;;;;;2.60;2.40;;;18.20;55.00;;;;;;5050450;28;20217;-73
2024/01/19 08:48:45;;;;;;;2.60;2.40;;;18.20;55.00;;;;;;5051857;28;20189;-72
2024/01/19 08:51:19;;;;;;;2.53;2.33;;;18.20;55.00;;;;;;5067950;28;20684;-73
2024/01/19 08:53:45;;;;;;;2.35;2.13;;;18.20;55.00;;;;;;5045202;28;20195;-72
2024/01/19 08:56:17;;;;;;;2.90;2.28;;;18.20;55.00;;;;;;5035471;28;20214;-72
2024/01/19 08:58:43;;;;;;;2.47;2.28;;;18.20;55.10;;;;;;5029654;28;20247;-73
2024/01/19 09:01:17;;;;;;;3.53;2.47;;;18.20;55.00;;;;;;5046308;28;20308;-73
2024/01/19 09:03:43;;;;;;;2.20;2.00;;;18.20;55.00;;;;;;5044126;28;20177;-73
2024/01/19 09:06:09;;;;;;;2.75;2.50;;;18.20;54.90;;;;;;5075459;28;20293;-73
2024/01/19 09:08:35;;;;;;;2.53;2.33;;;18.20;54.80;;;;;;5067586;28;20192;-73
2024/01/19 09:11:01;;;;;;;2.60;2.40;;;18.20;54.90;;;;;;5053012;28;20589;-73
2024/01/19 09:13:27;;;;;;;2.70;2.25;;;18.20;54.80;;;;;;5080336;28;20198;-73
2024/01/19 09:15:53;;;;;;;2.20;2.00;;;18.20;54.80;;;;;;5067058;28;20292;-74
2024/01/19 09:18:20;;;;;;;2.58;2.25;;;18.30;55.00;;;;;;5065091;28;20196;-73
2024/01/19 09:20:46;;;;;;;2.95;2.17;;;18.20;54.80;;;;;;5066604;28;20693;-73
2024/01/19 09:23:13;;;;;;;2.35;2.15;;;18.20;54.80;;;;;;5038894;28;20221;-73
2024/01/19 09:25:39;;;;;;;2.05;1.95;;;18.30;54.90;;;;;;5074501;28;20181;-74
2024/01/19 09:28:05;;;;;;;1.70;1.60;;;18.20;54.80;;;;;;5066566;28;20186;-73
2024/01/19 09:30:31;;;;;;;1.80;1.70;;;18.20;54.90;;;;;;5061420;28;20194;-73
2024/01/19 09:32:57;;;;;;;2.08;1.88;;;18.20;54.80;;;;;;5055593;28;20595;-73
2024/01/19 09:35:23;;;;;;;2.30;2.13;;;18.20;54.80;;;;;;5031483;28;20598;-73
2024/01/19 09:37:49;;;;;;;2.58;2.38;;;18.20;54.80;;;;;;5054564;28;20263;-73
2024/01/19 09:40:19;;;;;;;1.92;1.73;;;18.20;54.80;;;;;;5050158;28;20202;-73
2024/01/19 09:42:49;;;;;;;2.40;2.10;;;18.30;54.90;;;;;;5061438;28;20187;-73
2024/01/19 09:45:18;;;;;;;2.20;2.00;;;18.30;55.00;;;;;;5076643;28;20674;-73
2024/01/19 09:48:23;;;;;;;2.25;2.05;;;18.30;55.00;;;;;;5058997;28;20213;-73
2024/01/19 09:50:52;;;;;;;2.45;2.13;;;18.30;54.90;;;;;;5053983;28;20228;-73
2024/01/19 09:53:32;;;;;;;2.20;2.00;;;18.30;54.90;;;;;;5066126;28;20337;-73
2024/01/19 09:56:01;;;;;;;1.90;1.80;;;18.30;54.80;;;;;;5045201;28;20779;-73
2024/01/19 09:58:27;;;;;;;3.03;2.20;;;18.30;54.80;;;;;;5049023;28;20198;-73
2024/01/19 10:00:54;;;;;;;4.70;2.30;;;18.30;54.80;;;;;;5046552;28;20214;-73
2024/01/19 10:03:22;;;;;;;1.95;1.83;;;18.30;54.80;;;;;;5065765;28;20191;-73
2024/01/19 10:05:50;;;;;;;1.98;1.80;;;18.30;54.80;;;;;;5046928;28;20192;-73
2024/01/19 10:08:17;;;;;;;2.20;2.10;;;18.30;54.80;;;;;;5060451;28;20190;-73
2024/01/19 10:10:44;;;;;;;2.00;1.90;;;18.30;54.80;;;;;;5067402;28;20196;-73
2024/01/19 10:13:11;;;;;;;1.92;1.83;;;18.30;54.80;;;;;;5064589;28;20189;-73
2024/01/19 10:15:37;;;;;;;1.88;1.75;;;18.30;54.70;;;;;;5078161;28;20191;-73
2024/01/19 10:18:05;;;;;;;1.98;1.88;;;18.30;54.80;;;;;;5042315;28;20214;-74
2024/01/19 10:20:32;;;;;;;2.10;1.90;;;18.30;54.80;;;;;;5039356;28;20309;-73
2024/01/19 10:23:22;;;;;;;2.17;1.80;;;18.30;54.80;;;;;;5047938;28;20208;-73
2024/01/19 10:25:52;;;;;;;2.08;1.90;;;18.30;54.80;;;;;;5068087;28;20230;-74
2024/01/19 10:28:35;;;;;;;2.05;1.85;;;18.30;54.80;;;;;;5063013;28;20653;-74
2024/01/19 10:31:23;;;;;;;1.90;1.80;;;18.30;54.80;;;;;;5055808;28;20277;-74
2024/01/19 10:33:51;;;;;;;1.95;1.85;;;18.30;54.80;;;;;;5063441;28;20292;-73
2024/01/19 10:36:17;;;;;;;2.38;2.08;;;18.30;54.80;;;;;;5045843;28;20209;-73
2024/01/19 10:38:43;;;;;;;1.73;1.60;;;18.30;54.90;;;;;;5060314;28;20268;-74
2024/01/19 10:41:27;;;;;;;1.85;1.75;;;18.30;54.90;;;;;;5036915;28;20278;-73
2024/01/19 10:44:08;;;;;;;1.92;1.83;;;18.30;54.80;;;;;;5049777;28;20210;-73
2024/01/19 10:46:34;;;;;;;1.90;1.80;;;18.30;54.80;;;;;;5039647;28;20207;-74
2024/01/19 10:49:04;;;;;;;2.00;1.80;;;18.30;54.70;;;;;;5057726;28;20193;-73
2024/01/19 10:51:34;;;;;;;1.65;1.55;;;18.30;54.70;;;;;;5045904;28;20202;-74
2024/01/19 10:54:02;;;;;;;1.90;1.80;;;18.30;54.70;;;;;;5050393;28;20190;-74
2024/01/19 10:56:28;;;;;;;1.65;1.33;;;18.40;54.70;;;;;;5038097;28;20206;-74
2024/01/19 10:58:54;;;;;;;2.10;1.90;;;18.40;54.70;;;;;;5046916;28;20217;-74
2024/01/19 11:01:20;;;;;;;1.80;1.70;;;18.30;54.60;;;;;;5061353;28;20216;-74
2024/01/19 11:03:46;;;;;;;1.38;1.30;;;18.40;54.70;;;;;;5054046;28;20190;-74
2024/01/19 11:06:12;;;;;;;1.70;1.60;;;18.40;54.70;;;;;;5038352;28;20263;-74
2024/01/19 11:08:39;;;;;;;1.70;1.60;;;18.40;54.70;;;;;;5057259;28;20354;-74
2024/01/19 11:11:06;;;;;;;1.83;1.70;;;18.40;54.70;;;;;;5049927;28;20214;-74
2024/01/19 11:13:42;;;;;;;1.40;1.30;;;18.40;54.70;;;;;;5049502;28;20207;-74
2024/01/19 11:16:16;;;;;;;1.52;1.23;;;18.40;54.70;;;;;;5060827;28;20252;-74
2024/01/19 11:18:44;;;;;;;1.42;1.33;;;18.40;54.70;;;;;;5037551;28;20244;-74
2024/01/19 11:21:10;;;;;;;1.73;1.52;;;18.40;54.70;;;;;;5049376;28;20213;-74
2024/01/19 11:23:38;;;;;;;1.38;1.27;;;18.40;54.70;;;;;;5055261;28;20201;-74
2024/01/19 11:26:16;;;;;;;1.33;1.23;;;18.40;54.70;;;;;;5057712;28;20212;-74
2024/01/19 11:28:59;;;;;;;1.80;1.70;;;18.40;54.70;;;;;;5056875;28;20190;-74
2024/01/19 11:31:39;;;;;;;1.70;1.60;;;18.40;54.70;;;;;;5056929;28;20251;-74
2024/01/19 11:34:08;;;;;;;1.63;1.50;;;18.40;54.70;;;;;;5054203;28;20190;-74
2024/01/19 11:36:40;;;;;;;1.67;1.55;;;18.40;54.70;;;;;;5057165;28;20627;-73
2024/01/19 11:39:13;;;;;;;1.67;1.55;;;18.40;54.80;;;;;;5043972;28;20189;-73
2024/01/19 11:41:40;;;;;;;1.67;1.40;;;18.40;54.70;;;;;;5033946;28;20337;-73
2024/01/19 11:44:12;;;;;;;1.67;1.27;;;18.40;54.70;;;;;;5055388;28;20201;-74
2024/01/19 11:46:43;;;;;;;1.50;1.40;;;18.40;54.70;;;;;;5053638;28;20207;-73
2024/01/19 11:49:38;;;;;;;1.75;1.65;;;18.40;54.70;;;;;;5044327;28;20178;-73
2024/01/19 11:52:24;;;;;;;1.50;1.40;;;18.40;54.70;;;;;;5052380;28;20201;-73
2024/01/19 11:54:50;;;;;;;1.30;1.20;;;18.40;54.70;;;;;;5064250;28;20193;-73
2024/01/19 11:57:21;;;;;;;1.40;1.30;;;18.40;54.70;;;;;;5040324;28;20273;-73
2024/01/19 11:59:47;;;;;;;1.38;1.27;;;18.40;54.70;;;;;;5046768;28;20191;-73
2024/01/19 12:02:30;;;;;;;1.60;1.50;;;18.40;54.70;;;;;;5045365;28;20194;-73
2024/01/19 12:05:03;;;;;;;1.45;1.25;;;18.40;54.70;;;;;;5045396;28;20186;-74
2024/01/19 12:07:29;;;;;;;1.20;1.10;;;18.40;54.70;;;;;;5045268;28;20206;-73
2024/01/19 12:10:12;;;;;;;1.60;1.50;;;18.40;54.80;;;;;;5059874;28;20231;-73
2024/01/19 12:12:39;;;;;;;1.20;1.10;;;18.40;54.80;;;;;;5032621;28;20236;-73
2024/01/19 12:15:08;;;;;;;1.42;1.33;;;18.40;54.80;;;;;;5030645;28;20179;-72
2024/01/19 12:17:40;;;;;;;1.63;1.42;;;18.40;54.80;;;;;;5041944;28;20242;-73
2024/01/19 12:20:09;;;;;;;0.90;0.90;;;18.40;54.90;;;;;;5026842;28;20289;-73
2024/01/19 12:22:38;;;;;;;1.40;1.27;;;18.40;54.90;;;;;;5027743;28;20178;-73
2024/01/19 12:25:24;;;;;;;1.40;1.30;;;18.40;54.80;;;;;;5027464;28;20180;-73
2024/01/19 12:28:02;;;;;;;1.27;1.10;;;18.40;54.90;;;;;;5052633;28;20229;-73
2024/01/19 12:30:32;;;;;;;1.30;1.20;;;18.40;55.00;;;;;;5044327;28;20220;-73
2024/01/19 12:33:11;;;;;;;1.58;1.23;;;18.40;55.00;;;;;;5040081;28;20199;-73
2024/01/19 12:35:37;;;;;;;1.40;1.30;;;18.40;54.90;;;;;;5055337;28;20183;-73
2024/01/19 12:38:03;;;;;;;1.25;1.15;;;18.40;54.80;;;;;;5041684;28;20189;-73
2024/01/19 12:40:29;;;;;;;1.20;1.20;;;18.40;54.80;;;;;;5048266;28;20207;-71
2024/01/19 12:43:03;;;;;;;1.48;1.38;;;18.40;54.90;;;;;;5050475;28;20200;-71
2024/01/19 12:45:29;;;;;;;1.42;1.30;;;18.40;54.90;;;;;;5058069;28;20712;-71
2024/01/19 12:47:55;;;;;;;1.15;1.10;;;18.40;54.90;;;;;;5042597;28;20293;-70
2024/01/19 12:50:21;;;;;;;1.65;1.45;;;18.40;54.90;;;;;;5022659;28;20188;-70